Kirishima Maru No.17 — JD3391 — position and weather

sailwx.info

Track history (hours):
 
Tides and Currents Weather Stations Pressure Air Temp Water Temp Dewpoint Dewpoint Depression Visibility Wind Speed Wind Dir Waves Ship Positions

Kirishima Maru No.17

Last reported at 2018-Feb-24 18:25 UTC. Time now 2018-Feb-24 19:35 UTC.
Position N 34°27' E 134°28'.

Length 91 m; draft 5.9 m.

Type: Tanker. MMSI: 431003736.

Date/timePositionNaut miles runAvg speedWind from/ knotsBaromVisibWave heightAir tempDewpointWater temp
2018-Feb-24 18:25N 34°27' E 134°28'513.5
2018-Feb-24 18:00N 34°29' E 134°34'713.9
2018-Feb-24 17:30N 34°32' E 134°42'714.2
2018-Feb-24 17:00N 34°35' E 134°50'714.7
2018-Feb-24 16:30N 34°37' E 134°58'713.3
2018-Feb-24 16:00N 34°36' E 135°06'713.2
2018-Feb-24 15:30N 34°34' E 135°14'612.9
2018-Feb-24 15:00N 34°33' E 135°21'3 5.5
2018-Feb-24 14:30N 34°32' E 135°24'0 0.0
2018-Feb-24 13:59N 34°32' E 135°24'0 0.0
2018-Feb-24 13:26N 34°32' E 135°24'0 0.0
2018-Feb-24 12:56N 34°32' E 135°24'0 0.0
2018-Feb-24 12:29N 34°32' E 135°24'0 0.0
2018-Feb-24 11:59N 34°32' E 135°24'0 0.0
2018-Feb-24 11:29N 34°32' E 135°24'0 0.0
2018-Feb-24 10:59N 34°32' E 135°24'0 0.0
2018-Feb-24 10:26N 34°32' E 135°24'0 0.0
2018-Feb-24 09:59N 34°32' E 135°24'0 0.0
2018-Feb-24 09:29N 34°32' E 135°24'0 0.0
2018-Feb-24 08:56N 34°32' E 135°24'0 0.0
2018-Feb-24 08:26N 34°32' E 135°24'0 0.0
2018-Feb-24 07:59N 34°32' E 135°24'0 0.0
2018-Feb-24 07:29N 34°32' E 135°24'0 0.1
2018-Feb-24 07:00N 34°32' E 135°24'4 8.1
2018-Feb-24 06:30N 34°32' E 135°20'713.7
2018-Feb-24 06:01N 34°28' E 135°12'713.9
2018-Feb-24 05:30N 34°24' E 135°06'713.7
2018-Feb-24 05:00N 34°19' E 135°01'510.0
2018-Feb-24 04:31N 34°14' E 135°04'713.9
2018-Feb-24 04:00N 34°09' E 135°09'2 0.5
2018-Feb-23 23:57N 34°09' E 135°12'1 3.0
2018-Feb-23 23:30N 34°09' E 135°10'1 2.6
2018-Feb-23 22:58N 34°10' E 135°09'0 0.0
2018-Feb-23 22:28N 34°10' E 135°09'0 0.1
2018-Feb-23 22:01N 34°10' E 135°09'2 4.8
2018-Feb-23 21:30N 34°11' E 135°07'612.9
2018-Feb-23 21:01N 34°15' E 135°00'510.9
2018-Feb-23 20:30N 34°20' E 134°59'612.4
2018-Feb-23 20:00N 34°26' E 135°00'612.3
2018-Feb-23 19:30N 34°32' E 135°02'5 9.8
2018-Feb-23 19:00N 34°37' E 135°01'611.5
2018-Feb-23 18:30N 34°35' E 134°54'511.0
2018-Feb-23 18:01N 34°33' E 134°48'612.1
2018-Feb-23 17:30N 34°31' E 134°41'612.4
2018-Feb-23 17:01N 34°28' E 134°34'612.6
2018-Feb-23 16:31N 34°26' E 134°27'612.6
2018-Feb-23 16:00N 34°24' E 134°20'611.9
2018-Feb-23 15:28N 34°24' E 134°12'  
2018-Feb-19 16:21N 34°27' E 134°03'813.3
2018-Feb-19 15:47N 34°25' E 134°12'713.8
2018-Feb-19 15:18N 34°22' E 134°20'413.7
2018-Feb-19 15:00N 34°21' E 134°24'713.7
2018-Feb-19 14:30N 34°18' E 134°32'713.2
2018-Feb-19 13:58N 34°14' E 134°39'613.0
2018-Feb-19 13:30N 34°10' E 134°44'713.5
2018-Feb-19 13:00N 34°08' E 134°52'714.0
2018-Feb-19 12:30N 34°07' E 135°00'612.1
2018-Feb-19 12:01N 34°07' E 135°07'0 0.1
2018-Feb-19 07:38N 34°07' E 135°08'0 1.2
2018-Feb-19 07:30N 34°07' E 135°08'1 2.4
2018-Feb-19 07:00N 34°08' E 135°07'0 0.0
2018-Feb-19 06:30N 34°08' E 135°07'0 0.0
2018-Feb-19 06:00N 34°08' E 135°07'0 0.0
2018-Feb-19 05:30N 34°08' E 135°07'0 0.0
2018-Feb-19 05:00N 34°08' E 135°07'0 0.0
2018-Feb-19 04:30N 34°08' E 135°07'2 3.5
2018-Feb-19 04:01N 34°09' E 135°09'3 0.7
2018-Feb-18 23:56N 34°09' E 135°12'1 2.6
2018-Feb-18 23:30N 34°09' E 135°11'2 2.9
2018-Feb-18 22:59N 34°09' E 135°09'0 0.0
2018-Feb-18 22:29N 34°09' E 135°09'0 0.0
2018-Feb-18 21:59N 34°09' E 135°09'0 0.0
2018-Feb-18 21:26N 34°09' E 135°09'0 0.0
2018-Feb-18 20:59N 34°09' E 135°09'0 0.0
2018-Feb-18 20:29N 34°09' E 135°09'0 0.0
2018-Feb-18 19:59N 34°09' E 135°09'0 0.1
2018-Feb-18 19:29N 34°09' E 135°09'0 0.0
2018-Feb-18 18:59N 34°09' E 135°09'0 0.0
2018-Feb-18 18:29N 34°09' E 135°09'0 0.0
2018-Feb-18 17:59N 34°09' E 135°09'0 0.0
2018-Feb-18 17:29N 34°09' E 135°09'0 0.0
2018-Feb-18 16:59N 34°09' E 135°09'0 0.0
2018-Feb-18 16:29N 34°09' E 135°09'0 0.1
2018-Feb-18 16:00N 34°09' E 135°09'510.5
2018-Feb-18 15:30N 34°09' E 135°03'612.0
2018-Feb-18 15:00N 34°08' E 134°55'612.4
2018-Feb-18 14:30N 34°09' E 134°48'712.7
2018-Feb-18 13:59N 34°12' E 134°41'612.5
2018-Feb-18 13:30N 34°16' E 134°36'612.4
2018-Feb-18 13:01N 34°19' E 134°29'612.4
2018-Feb-18 12:30N 34°21' E 134°22'911.8
2018-Feb-18 11:46N 34°24' E 134°12'75 1.6
2018-Feb-16 12:12N 34°01' E 132°46'315.3
2018-Feb-16 12:00N 33°58' E 132°44'715.3
2018-Feb-16 11:30N 33°54' E 132°37'714.2
2018-Feb-16 10:59N 33°48' E 132°30'714.1
2018-Feb-16 10:29N 33°45' E 132°23'1813.7
2018-Feb-16 09:11N 33°42' E 132°02'313.1
2018-Feb-16 08:58N 33°43' E 131°58'613.2
2018-Feb-16 08:30N 33°44' E 131°51'713.3
2018-Feb-16 08:00N 33°46' E 131°43'713.5
2018-Feb-16 07:29N 33°47' E 131°35'713.5
2018-Feb-16 07:00N 33°48' E 131°28'713.7
2018-Feb-16 06:30N 33°50' E 131°19'713.5
2018-Feb-16 06:00N 33°52' E 131°12'4 7.2
2018-Feb-16 05:30N 33°56' E 131°11'0 0.0
2018-Feb-16 04:53N 33°56' E 131°11'0 0.0
2018-Feb-16 04:20N 33°56' E 131°11'0 0.0
2018-Feb-16 03:59N 33°56' E 131°11'0 0.0
2018-Feb-16 03:29N 33°56' E 131°11'0 0.0
2018-Feb-16 02:53N 33°56' E 131°11'0 0.0
2018-Feb-16 02:26N 33°56' E 131°11'0 0.0
2018-Feb-16 01:59N 33°56' E 131°11'0 0.0
2018-Feb-16 01:29N 33°56' E 131°11'0 0.0
2018-Feb-16 00:59N 33°56' E 131°11'0 0.1
2018-Feb-16 00:31N 33°56' E 131°11'2 4.3
2018-Feb-15 23:59N 33°54' E 131°11'0 0.3
2018-Feb-15 23:30N 33°54' E 131°11'0 0.0
2018-Feb-15 23:00N 33°54' E 131°11'0 0.0
2018-Feb-15 22:31N 33°54' E 131°11'0 0.0
2018-Feb-15 21:58N 33°54' E 131°11'0 0.0
2018-Feb-15 21:30N 33°54' E 131°11'0 0.0
2018-Feb-15 21:01N 33°54' E 131°11'0 0.0
2018-Feb-15 20:31N 33°54' E 131°11'0 0.0
2018-Feb-15 20:01N 33°54' E 131°11'0 0.0
2018-Feb-15 19:27N 33°54' E 131°11'0 0.0
2018-Feb-15 19:01N 33°54' E 131°11'0 0.1
2018-Feb-15 18:31N 33°54' E 131°11'0 0.1
2018-Feb-15 18:00N 33°54' E 131°11'0 0.0
2018-Feb-15 17:30N 33°54' E 131°11'0 0.0
2018-Feb-15 17:01N 33°54' E 131°11'0 0.0
2018-Feb-15 16:28N 33°54' E 131°11'0 0.0
2018-Feb-15 16:00N 33°54' E 131°11'0 0.0
2018-Feb-15 15:30N 33°54' E 131°11'0 0.0
2018-Feb-15 15:00N 33°54' E 131°11'0 0.0
2018-Feb-15 14:31N 33°54' E 131°11'0 0.0
2018-Feb-15 14:00N 33°54' E 131°11'0 0.0
2018-Feb-15 13:30N 33°54' E 131°11'0 0.0
2018-Feb-15 13:00N 33°54' E 131°11'0 0.2
2018-Feb-15 12:30N 33°54' E 131°11'0 0.0
2018-Feb-15 12:00N 33°54' E 131°11'0 0.1
2018-Feb-15 11:30N 33°54' E 131°11'0 0.0
2018-Feb-15 11:00N 33°54' E 131°11'0 0.0
2018-Feb-15 10:31N 33°54' E 131°11'0 0.0
2018-Feb-15 10:01N 33°54' E 131°11'0 0.0
2018-Feb-15 09:30N 33°54' E 131°11'0 0.0
2018-Feb-15 09:00N 33°54' E 131°11'0 0.0
2018-Feb-15 08:21N 33°54' E 131°11'0 0.3
2018-Feb-15 08:01N 33°54' E 131°11'510.0
2018-Feb-15 07:30N 33°52' E 131°17'714.1
2018-Feb-15 07:00N 33°52' E 131°25'713.8
2018-Feb-15 06:30N 33°53' E 131°33'713.6
2018-Feb-15 06:01N 33°54' E 131°41'713.8
2018-Feb-15 05:30N 33°58' E 131°49'4 1.0
2018-Feb-15 02:04N 34°01' E 131°51'0 0.1
2018-Feb-15 02:00N 34°01' E 131°51'1 0.2
2018-Feb-14 22:11N 33°60' E 131°51'0 0.0
2018-Feb-14 19:23N 33°60' E 131°51'0 0.0
2018-Feb-14 18:53N 33°60' E 131°51'  
Track history (hours):
 
Tides and Currents Weather Stations Pressure Air Temp Water Temp Dewpoint Dewpoint Depression Visibility Wind Speed Wind Dir Waves Ship Positions

Kirishima Maru No.17

Last reported at 2018-Feb-24 18:25 UTC. Time now 2018-Feb-24 19:35 UTC.
Position N 34°27' E 134°28'.

Length 91 m; draft 5.9 m.

Type: Tanker. MMSI: 431003736.

Date/timePositionNaut miles runAvg speedWind from/ knotsBaromVisibWave heightAir tempDewpointWater temp
2018-Feb-24 18:25N 34°27' E 134°28'513.5
2018-Feb-24 18:00N 34°29' E 134°34'713.9
2018-Feb-24 17:30N 34°32' E 134°42'714.2
2018-Feb-24 17:00N 34°35' E 134°50'714.7
2018-Feb-24 16:30N 34°37' E 134°58'713.3
2018-Feb-24 16:00N 34°36' E 135°06'713.2
2018-Feb-24 15:30N 34°34' E 135°14'612.9
2018-Feb-24 15:00N 34°33' E 135°21'3 5.5
2018-Feb-24 14:30N 34°32' E 135°24'0 0.0
2018-Feb-24 13:59N 34°32' E 135°24'0 0.0
2018-Feb-24 13:26N 34°32' E 135°24'0 0.0
2018-Feb-24 12:56N 34°32' E 135°24'0 0.0
2018-Feb-24 12:29N 34°32' E 135°24'0 0.0
2018-Feb-24 11:59N 34°32' E 135°24'0 0.0
2018-Feb-24 11:29N 34°32' E 135°24'0 0.0
2018-Feb-24 10:59N 34°32' E 135°24'0 0.0
2018-Feb-24 10:26N 34°32' E 135°24'0 0.0
2018-Feb-24 09:59N 34°32' E 135°24'0 0.0
2018-Feb-24 09:29N 34°32' E 135°24'0 0.0
2018-Feb-24 08:56N 34°32' E 135°24'0 0.0
2018-Feb-24 08:26N 34°32' E 135°24'0 0.0
2018-Feb-24 07:59N 34°32' E 135°24'0 0.0
2018-Feb-24 07:29N 34°32' E 135°24'0 0.1
2018-Feb-24 07:00N 34°32' E 135°24'4 8.1
2018-Feb-24 06:30N 34°32' E 135°20'713.7
2018-Feb-24 06:01N 34°28' E 135°12'713.9
2018-Feb-24 05:30N 34°24' E 135°06'713.7
2018-Feb-24 05:00N 34°19' E 135°01'510.0
2018-Feb-24 04:31N 34°14' E 135°04'713.9
2018-Feb-24 04:00N 34°09' E 135°09'2 0.5
2018-Feb-23 23:57N 34°09' E 135°12'1 3.0
2018-Feb-23 23:30N 34°09' E 135°10'1 2.6
2018-Feb-23 22:58N 34°10' E 135°09'0 0.0
2018-Feb-23 22:28N 34°10' E 135°09'0 0.1
2018-Feb-23 22:01N 34°10' E 135°09'2 4.8
2018-Feb-23 21:30N 34°11' E 135°07'612.9
2018-Feb-23 21:01N 34°15' E 135°00'510.9
2018-Feb-23 20:30N 34°20' E 134°59'612.4
2018-Feb-23 20:00N 34°26' E 135°00'612.3
2018-Feb-23 19:30N 34°32' E 135°02'5 9.8
2018-Feb-23 19:00N 34°37' E 135°01'611.5
2018-Feb-23 18:30N 34°35' E 134°54'511.0
2018-Feb-23 18:01N 34°33' E 134°48'612.1
2018-Feb-23 17:30N 34°31' E 134°41'612.4
2018-Feb-23 17:01N 34°28' E 134°34'612.6
2018-Feb-23 16:31N 34°26' E 134°27'612.6
2018-Feb-23 16:00N 34°24' E 134°20'611.9
2018-Feb-23 15:28N 34°24' E 134°12'  
2018-Feb-19 16:21N 34°27' E 134°03'813.3
2018-Feb-19 15:47N 34°25' E 134°12'713.8
2018-Feb-19 15:18N 34°22' E 134°20'413.7
2018-Feb-19 15:00N 34°21' E 134°24'713.7
2018-Feb-19 14:30N 34°18' E 134°32'713.2
2018-Feb-19 13:58N 34°14' E 134°39'613.0
2018-Feb-19 13:30N 34°10' E 134°44'713.5
2018-Feb-19 13:00N 34°08' E 134°52'714.0
2018-Feb-19 12:30N 34°07' E 135°00'612.1
2018-Feb-19 12:01N 34°07' E 135°07'0 0.1
2018-Feb-19 07:38N 34°07' E 135°08'0 1.2
2018-Feb-19 07:30N 34°07' E 135°08'1 2.4
2018-Feb-19 07:00N 34°08' E 135°07'0 0.0
2018-Feb-19 06:30N 34°08' E 135°07'0 0.0
2018-Feb-19 06:00N 34°08' E 135°07'0 0.0
2018-Feb-19 05:30N 34°08' E 135°07'0 0.0
2018-Feb-19 05:00N 34°08' E 135°07'0 0.0
2018-Feb-19 04:30N 34°08' E 135°07'2 3.5
2018-Feb-19 04:01N 34°09' E 135°09'3 0.7
2018-Feb-18 23:56N 34°09' E 135°12'1 2.6
2018-Feb-18 23:30N 34°09' E 135°11'2 2.9
2018-Feb-18 22:59N 34°09' E 135°09'0 0.0
2018-Feb-18 22:29N 34°09' E 135°09'0 0.0
2018-Feb-18 21:59N 34°09' E 135°09'0 0.0
2018-Feb-18 21:26N 34°09' E 135°09'0 0.0
2018-Feb-18 20:59N 34°09' E 135°09'0 0.0
2018-Feb-18 20:29N 34°09' E 135°09'0 0.0
2018-Feb-18 19:59N 34°09' E 135°09'0 0.1
2018-Feb-18 19:29N 34°09' E 135°09'0 0.0
2018-Feb-18 18:59N 34°09' E 135°09'0 0.0
2018-Feb-18 18:29N 34°09' E 135°09'0 0.0
2018-Feb-18 17:59N 34°09' E 135°09'0 0.0
2018-Feb-18 17:29N 34°09' E 135°09'0 0.0
2018-Feb-18 16:59N 34°09' E 135°09'0 0.0
2018-Feb-18 16:29N 34°09' E 135°09'0 0.1
2018-Feb-18 16:00N 34°09' E 135°09'510.5
2018-Feb-18 15:30N 34°09' E 135°03'612.0
2018-Feb-18 15:00N 34°08' E 134°55'612.4
2018-Feb-18 14:30N 34°09' E 134°48'712.7
2018-Feb-18 13:59N 34°12' E 134°41'612.5
2018-Feb-18 13:30N 34°16' E 134°36'612.4
2018-Feb-18 13:01N 34°19' E 134°29'612.4
2018-Feb-18 12:30N 34°21' E 134°22'911.8
2018-Feb-18 11:46N 34°24' E 134°12'75 1.6
2018-Feb-16 12:12N 34°01' E 132°46'315.3
2018-Feb-16 12:00N 33°58' E 132°44'715.3
2018-Feb-16 11:30N 33°54' E 132°37'714.2
2018-Feb-16 10:59N 33°48' E 132°30'714.1
2018-Feb-16 10:29N 33°45' E 132°23'1813.7
2018-Feb-16 09:11N 33°42' E 132°02'313.1
2018-Feb-16 08:58N 33°43' E 131°58'613.2
2018-Feb-16 08:30N 33°44' E 131°51'713.3
2018-Feb-16 08:00N 33°46' E 131°43'713.5
2018-Feb-16 07:29N 33°47' E 131°35'713.5
2018-Feb-16 07:00N 33°48' E 131°28'713.7
2018-Feb-16 06:30N 33°50' E 131°19'713.5
2018-Feb-16 06:00N 33°52' E 131°12'4 7.2
2018-Feb-16 05:30N 33°56' E 131°11'0 0.0
2018-Feb-16 04:53N 33°56' E 131°11'0 0.0
2018-Feb-16 04:20N 33°56' E 131°11'0 0.0
2018-Feb-16 03:59N 33°56' E 131°11'0 0.0
2018-Feb-16 03:29N 33°56' E 131°11'0 0.0
2018-Feb-16 02:53N 33°56' E 131°11'0 0.0
2018-Feb-16 02:26N 33°56' E 131°11'0 0.0
2018-Feb-16 01:59N 33°56' E 131°11'0 0.0
2018-Feb-16 01:29N 33°56' E 131°11'0 0.0
2018-Feb-16 00:59N 33°56' E 131°11'0 0.1
2018-Feb-16 00:31N 33°56' E 131°11'2 4.3
2018-Feb-15 23:59N 33°54' E 131°11'0 0.3
2018-Feb-15 23:30N 33°54' E 131°11'0 0.0
2018-Feb-15 23:00N 33°54' E 131°11'0 0.0
2018-Feb-15 22:31N 33°54' E 131°11'0 0.0
2018-Feb-15 21:58N 33°54' E 131°11'0 0.0
2018-Feb-15 21:30N 33°54' E 131°11'0 0.0
2018-Feb-15 21:01N 33°54' E 131°11'0 0.0
2018-Feb-15 20:31N 33°54' E 131°11'0 0.0
2018-Feb-15 20:01N 33°54' E 131°11'0 0.0
2018-Feb-15 19:27N 33°54' E 131°11'0 0.0
2018-Feb-15 19:01N 33°54' E 131°11'0 0.1
2018-Feb-15 18:31N 33°54' E 131°11'0 0.1
2018-Feb-15 18:00N 33°54' E 131°11'0 0.0
2018-Feb-15 17:30N 33°54' E 131°11'0 0.0
2018-Feb-15 17:01N 33°54' E 131°11'0 0.0
2018-Feb-15 16:28N 33°54' E 131°11'0 0.0
2018-Feb-15 16:00N 33°54' E 131°11'0 0.0
2018-Feb-15 15:30N 33°54' E 131°11'0 0.0
2018-Feb-15 15:00N 33°54' E 131°11'0 0.0
2018-Feb-15 14:31N 33°54' E 131°11'0 0.0
2018-Feb-15 14:00N 33°54' E 131°11'0 0.0
2018-Feb-15 13:30N 33°54' E 131°11'0 0.0
2018-Feb-15 13:00N 33°54' E 131°11'0 0.2
2018-Feb-15 12:30N 33°54' E 131°11'0 0.0
2018-Feb-15 12:00N 33°54' E 131°11'0 0.1
2018-Feb-15 11:30N 33°54' E 131°11'0 0.0
2018-Feb-15 11:00N 33°54' E 131°11'0 0.0
2018-Feb-15 10:31N 33°54' E 131°11'0 0.0
2018-Feb-15 10:01N 33°54' E 131°11'0 0.0
2018-Feb-15 09:30N 33°54' E 131°11'0 0.0
2018-Feb-15 09:00N 33°54' E 131°11'0 0.0
2018-Feb-15 08:21N 33°54' E 131°11'0 0.3
2018-Feb-15 08:01N 33°54' E 131°11'510.0
2018-Feb-15 07:30N 33°52' E 131°17'714.1
2018-Feb-15 07:00N 33°52' E 131°25'713.8
2018-Feb-15 06:30N 33°53' E 131°33'713.6
2018-Feb-15 06:01N 33°54' E 131°41'713.8
2018-Feb-15 05:30N 33°58' E 131°49'4 1.0
2018-Feb-15 02:04N 34°01' E 131°51'0 0.1
2018-Feb-15 02:00N 34°01' E 131°51'1 0.2
2018-Feb-14 22:11N 33°60' E 131°51'0 0.0
2018-Feb-14 19:23N 33°60' E 131°51'0 0.0
2018-Feb-14 18:53N 33°60' E 131°51'  

Dump ship's entire track history